Time;durP1;ratioP1;P1;durP2;ratioP2;P2;SDS_P1;SDS_P2;PMS_P1;PMS_P2;Temp;Humidity;BMP_temperature;BMP_pressure;BME280_temperature;BME280_humidity;BME280_pressure;Samples;Min_cycle;Max_cycle;Signal;HPM_P1;HPM_P2
2022/06/11 00:00:15;;;;;;;3.40;1.95;;;;;;;18.11;92.48;101684.59;20806028;28;20080;-77
2022/06/11 00:10:18;;;;;;;2.10;1.90;;;;;;;18.20;92.91;101692.97;20804992;28;20061;-77
2022/06/11 00:20:19;;;;;;;2.67;1.83;;;;;;;18.19;92.71;101686.69;20799279;28;20088;-77
2022/06/11 00:30:21;;;;;;;3.05;2.30;;;;;;;18.19;93.20;101689.38;20778026;28;20057;-77
2022/06/11 00:40:25;;;;;;;3.10;2.20;;;;;;;18.18;93.17;101698.47;20765721;28;20041;-77
2022/06/11 00:50:39;;;;;;;2.42;1.98;;;;;;;18.11;93.62;101689.97;20775381;28;20050;-77
2022/06/11 01:00:44;;;;;;;3.88;2.20;;;;;;;18.19;93.17;101693.94;20925805;28;20060;-77
2022/06/11 01:11:06;;;;;;;;;;;;;;;18.18;93.34;101693.06;20779424;28;20053;-77
2022/06/11 01:21:23;;;;;;;2.50;1.80;;;;;;;18.19;93.41;101683.16;20891864;28;20404;-77
2022/06/11 01:31:32;;;;;;;3.15;2.00;;;;;;;17.99;93.31;101637.00;20779581;28;20057;-77
2022/06/11 01:41:48;;;;;;;2.85;1.90;;;;;;;18.17;93.31;101669.78;20797046;28;20100;-77
2022/06/11 01:52:05;;;;;;;;;;;;;;;18.17;93.46;101661.72;20879852;28;20056;-77
2022/06/11 02:02:21;;;;;;;2.08;1.88;;;;;;;18.16;93.28;101661.84;20774283;28;19978;-77
2022/06/11 02:12:29;;;;;;;2.13;1.60;;;;;;;18.15;93.39;101657.44;20790035;28;20125;-77
2022/06/11 02:22:35;;;;;;;2.40;1.88;;;;;;;18.16;93.23;101648.38;20787646;28;20111;-77
2022/06/11 02:32:37;;;;;;;2.88;1.98;;;;;;;18.15;93.20;101652.03;20785289;28;20056;-77
2022/06/11 02:42:38;;;;;;;2.35;1.77;;;;;;;17.65;93.20;101581.22;20888032;28;20111;-77
2022/06/11 02:52:41;;;;;;;2.25;1.70;;;;;;;18.06;93.11;101637.44;20795952;28;20045;-77
2022/06/11 03:02:47;;;;;;;2.22;1.80;;;;;;;18.00;92.71;101644.13;20778730;28;20057;-77
2022/06/11 03:12:49;;;;;;;2.10;1.90;;;;;;;18.14;92.95;101663.78;20784676;28;20046;-77
2022/06/11 03:22:51;;;;;;;1.80;1.60;;;;;;;18.09;92.84;101659.59;20784357;28;20069;-77
2022/06/11 03:32:52;;;;;;;2.28;1.70;;;;;;;18.07;92.70;101666.94;20901532;28;20056;-77
2022/06/11 03:42:54;;;;;;;2.13;1.92;;;;;;;18.13;92.61;101676.41;20903384;28;20136;-77
2022/06/11 03:52:56;;;;;;;1.90;1.75;;;;;;;17.92;92.40;101657.31;20858941;28;20053;-77
2022/06/11 04:02:58;;;;;;;2.00;1.80;;;;;;;18.11;92.37;101689.97;20792127;28;20046;-77
2022/06/11 04:13:00;;;;;;;1.80;1.70;;;;;;;18.01;92.24;101694.34;20802527;28;20096;-77
2022/06/11 04:23:02;;;;;;;1.55;1.45;;;;;;;17.92;91.91;101689.66;20792740;28;20056;-78
2022/06/11 04:33:04;;;;;;;3.00;2.05;;;;;;;18.11;92.36;101725.00;20786023;28;20060;-78
2022/06/11 04:43:07;;;;;;;3.28;1.70;;;;;;;17.98;92.79;101698.13;20777477;28;20064;-76
2022/06/11 04:53:09;;;;;;;3.97;1.55;;;;;;;18.18;92.31;101738.03;20789597;28;20387;-76
2022/06/11 05:03:11;;;;;;;3.10;1.63;;;;;;;18.10;92.06;101714.38;20770832;28;20068;-76
2022/06/11 05:13:14;;;;;;;3.40;1.75;;;;;;;18.29;91.80;101735.38;20863601;28;20404;-76
2022/06/11 05:23:15;;;;;;;3.10;1.60;;;;;;;18.34;91.52;101749.34;20854297;28;20049;-76
2022/06/11 05:33:17;;;;;;;4.07;1.40;;;;;;;18.38;91.32;101755.38;20803780;28;20052;-77
2022/06/11 05:43:19;;;;;;;2.63;1.60;;;;;;;18.38;91.07;101749.97;20784049;28;20371;-76
2022/06/11 05:53:22;;;;;;;3.83;1.90;;;;;;;18.39;91.25;101757.09;20778796;28;20081;-76
2022/06/11 06:03:23;;;;;;;3.20;1.70;;;;;;;18.40;91.07;101756.94;20796606;28;20064;-76
2022/06/11 06:23:46;;;;;;;4.32;1.63;;;;;;;18.41;91.28;101771.31;20812383;28;20057;-76
2022/06/11 06:33:48;;;;;;;3.35;1.70;;;;;;;18.40;91.02;101786.59;20859958;28;20489;-76
2022/06/11 06:43:50;;;;;;;3.35;1.80;;;;;;;18.41;91.15;101787.47;20831271;28;20461;-76
2022/06/11 06:53:51;;;;;;;3.47;1.48;;;;;;;18.33;90.97;101781.78;20782458;28;20564;-76
2022/06/11 07:03:53;;;;;;;4.88;2.10;;;;;;;18.41;91.00;101795.56;20764857;28;20493;-76
2022/06/11 07:14:15;;;;;;;4.90;1.60;;;;;;;18.46;91.06;101800.59;20832078;28;20042;-76
2022/06/11 07:24:23;;;;;;;5.07;1.75;;;;;;;18.04;91.14;101720.22;20783693;28;20049;-76
2022/06/11 07:34:29;;;;;;;3.45;1.40;;;;;;;18.57;90.48;101787.16;20775499;28;20073;-76
2022/06/11 07:44:31;;;;;;;4.78;1.50;;;;;;;18.65;89.82;101800.91;20792321;28;20124;-76
2022/06/11 07:54:33;;;;;;;3.45;1.55;;;;;;;18.66;89.53;101797.22;20783718;28;20053;-76
2022/06/11 08:04:34;;;;;;;4.40;1.85;;;;;;;18.80;89.22;101830.34;20787753;28;20132;-75
2022/06/11 08:14:36;;;;;;;3.67;2.03;;;;;;;18.83;88.86;101840.91;20794428;28;20047;-76
2022/06/11 08:24:38;;;;;;;3.60;1.50;;;;;;;18.86;88.77;101842.50;20769154;28;20045;-76
2022/06/11 08:34:41;;;;;;;5.45;1.65;;;;;;;18.88;88.46;101843.25;20770512;28;20045;-76
2022/06/11 08:44:43;;;;;;;6.00;1.60;;;;;;;18.88;88.29;101846.78;20777927;28;20380;-76
2022/06/11 08:54:47;;;;;;;3.83;1.58;;;;;;;18.89;88.36;101851.22;20813398;28;20051;-76
2022/06/11 09:05:22;;;;;;;5.32;1.70;;;;;;;18.92;87.98;101850.97;20850504;28;20045;-76
2022/06/11 09:15:41;;;;;;;6.72;1.70;;;;;;;18.83;88.00;101840.91;20783501;28;20099;-76
2022/06/11 09:26:09;;;;;;;4.25;1.40;;;;;;;18.95;88.21;101844.47;20860836;28;20568;-76
2022/06/11 09:36:20;;;;;;;5.47;1.63;;;;;;;18.96;88.03;101857.84;20772964;28;20046;-76
2022/06/11 09:46:28;;;;;;;6.75;2.10;;;;;;;18.95;87.70;101861.50;20788219;28;20045;-76
2022/06/11 09:56:54;;;;;;;5.20;1.60;;;;;;;18.74;87.60;101830.81;20767224;28;20060;-76
2022/06/11 10:07:02;;;;;;;3.95;1.70;;;;;;;18.89;87.51;101864.69;20788025;28;20053;-76
2022/06/11 10:17:09;;;;;;;4.40;1.73;;;;;;;18.91;87.25;101870.84;20836823;28;20159;-76
2022/06/11 10:27:13;;;;;;;4.80;1.83;;;;;;;18.90;86.98;101879.91;20844866;28;20049;-76
2022/06/11 10:37:21;;;;;;;4.73;1.70;;;;;;;18.89;86.80;101875.50;20841150;28;20502;-76
2022/06/11 10:47:36;;;;;;;3.63;1.63;;;;;;;18.89;86.63;101886.28;20753380;28;20383;-76
2022/06/11 10:57:38;;;;;;;4.07;1.70;;;;;;;18.85;86.69;101887.50;20774365;28;20049;-77
2022/06/11 11:07:57;;;;;;;5.50;1.70;;;;;;;18.89;87.61;101888.97;20781105;28;20514;-78
2022/06/11 11:18:00;;;;;;;10.27;2.50;;;;;;;18.91;89.92;101889.72;20837922;28;20048;-78
2022/06/11 11:28:04;;;;;;;7.97;1.75;;;;;;;18.80;90.54;101865.41;20838947;28;20049;-79
2022/06/11 11:38:13;;;;;;;11.52;2.97;;;;;;;18.95;89.79;101899.28;20796225;28;20502;-78
2022/06/11 11:48:21;;;;;;;7.75;2.47;;;;;;;18.91;89.01;101924.78;20777634;28;20531;-78
2022/06/11 11:58:50;;;;;;;5.18;1.40;;;;;;;18.84;88.28;101901.97;20798556;28;20048;-78
2022/06/11 12:08:56;;;;;;;7.25;1.80;;;;;;;18.80;87.44;101906.75;20889017;28;20051;-78
2022/06/11 12:19:21;;;;;;;9.00;2.00;;;;;;;18.78;86.75;101902.44;20824843;28;20041;-78
2022/06/11 12:29:36;;;;;;;6.35;1.80;;;;;;;18.74;86.36;101907.19;20797569;28;20054;-78
2022/06/11 12:39:50;;;;;;;5.47;1.67;;;;;;;18.73;85.82;101899.25;20808371;28;20133;-78
2022/06/11 12:50:10;;;;;;;7.03;1.58;;;;;;;18.70;85.26;101895.81;20803971;28;20065;-78
2022/06/11 13:00:26;;;;;;;6.97;1.70;;;;;;;18.69;84.96;101896.78;20806903;28;20049;-78
2022/06/11 13:11:12;;;;;;;4.38;1.50;;;;;;;18.68;84.21;101913.94;20805349;28;20461;-78
2022/06/11 13:21:25;;;;;;;6.17;1.30;;;;;;;18.66;83.91;101897.03;20781630;28;20412;-78
2022/06/11 13:31:33;;;;;;;4.65;1.38;;;;;;;18.66;83.64;101910.50;20832402;28;20099;-78
2022/06/11 13:41:50;;;;;;;4.78;1.60;;;;;;;18.57;83.37;101897.72;20803168;28;20437;-78
2022/06/11 13:52:05;;;;;;;5.43;1.40;;;;;;;18.64;83.09;101917.84;20801537;28;20088;-78
2022/06/11 14:02:06;;;;;;;5.10;1.40;;;;;;;18.64;82.77;101895.41;20782589;28;20049;-78
2022/06/11 14:12:42;;;;;;;5.25;2.22;;;;;;;18.62;82.28;101898.22;20801623;28;20060;-78
2022/06/11 14:22:48;;;;;;;5.30;1.20;;;;;;;18.62;82.46;101909.03;20800258;28;20049;-78
2022/06/11 14:33:13;;;;;;;5.70;1.90;;;;;;;18.58;82.15;101879.69;20863069;28;20051;-78
2022/06/11 14:43:19;;;;;;;4.32;1.52;;;;;;;18.52;81.70;101854.91;20880012;28;20136;-79
2022/06/11 14:53:25;;;;;;;5.63;1.73;;;;;;;18.61;81.77;101868.66;20881001;28;20045;-78
2022/06/11 15:03:42;;;;;;;4.63;1.45;;;;;;;18.60;81.85;101875.03;20878725;28;20065;-78
2022/06/11 15:13:59;;;;;;;4.20;1.63;;;;;;;18.56;81.61;101850.16;20890006;28;20163;-78
2022/06/11 15:24:04;;;;;;;5.63;1.80;;;;;;;18.58;81.62;101861.69;20865217;28;20045;-78
2022/06/11 15:34:06;;;;;;;3.08;1.35;;;;;;;18.57;81.97;101851.88;20894325;28;20053;-78
2022/06/11 15:44:16;;;;;;;3.67;1.45;;;;;;;18.41;81.39;101842.25;20892472;28;20041;-78
2022/06/11 16:04:59;;;;;;;4.43;1.80;;;;;;;18.51;81.13;101844.22;20734118;28;20098;-78
2022/06/11 16:15:05;;;;;;;4.28;1.42;;;;;;;18.55;81.21;101853.81;20890116;28;20045;-78
2022/06/11 16:25:09;;;;;;;3.47;1.48;;;;;;;18.57;80.99;101862.66;20859927;28;20103;-78
2022/06/11 16:35:24;;;;;;;3.90;1.42;;;;;;;18.55;81.04;101854.69;20873590;28;20464;-79
2022/06/11 16:45:36;;;;;;;4.18;1.40;;;;;;;18.57;80.96;101862.66;20886930;28;20559;-78
2022/06/11 17:06:03;;;;;;;4.33;1.33;;;;;;;18.29;80.61;101818.06;20886480;28;20382;-79
2022/06/11 17:16:08;;;;;;;2.95;1.38;;;;;;;18.59;80.49;101866.09;20886039;28;20048;-79
2022/06/11 17:26:17;;;;;;;4.88;1.80;;;;;;;18.60;80.49;101866.94;20831981;28;20049;-78
2022/06/11 17:36:20;;;;;;;4.95;1.42;;;;;;;18.58;80.28;101858.13;20804231;28;20068;-79
2022/06/11 17:46:31;;;;;;;4.18;1.38;;;;;;;18.57;80.42;101884.25;20787749;28;20057;-78
2022/06/11 17:56:33;;;;;;;4.25;1.58;;;;;;;18.55;80.36;101865.47;20801857;28;20057;-79
2022/06/11 18:06:34;;;;;;;4.30;1.50;;;;;;;18.50;80.37;101872.19;20801419;28;20049;-79
2022/06/11 18:16:36;;;;;;;4.47;1.60;;;;;;;18.52;80.53;101883.69;20801322;28;20045;-79
2022/06/11 18:26:37;;;;;;;4.20;1.23;;;;;;;18.44;80.37;101886.13;20797615;28;20103;-79
2022/06/11 18:36:39;;;;;;;4.60;1.50;;;;;;;18.50;80.48;101899.13;20798744;28;20046;-79
2022/06/11 18:46:41;;;;;;;6.20;1.60;;;;;;;18.32;80.50;101875.31;20797406;28;20457;-78
2022/06/11 18:56:42;;;;;;;3.97;1.52;;;;;;;18.20;80.31;101843.88;20797142;28;20050;-79
2022/06/11 19:06:44;;;;;;;3.25;1.50;;;;;;;18.48;80.31;101898.41;20764672;28;20084;-80
2022/06/11 19:16:51;;;;;;;3.72;1.52;;;;;;;18.48;80.21;101906.50;20815914;28;20053;-78
2022/06/11 19:26:53;;;;;;;3.95;1.35;;;;;;;18.46;80.12;101903.03;20869564;28;20041;-78
2022/06/11 19:36:58;;;;;;;3.92;1.40;;;;;;;18.44;79.98;101911.28;20806012;28;20038;-78
2022/06/11 19:47:00;;;;;;;5.05;1.55;;;;;;;18.27;79.86;101883.72;20787991;28;20145;-78
2022/06/11 19:57:03;;;;;;;3.70;1.42;;;;;;;18.20;79.81;101870.84;20780050;28;20401;-77
2022/06/11 20:07:05;;;;;;;2.53;1.20;;;;;;;18.41;79.87;101908.81;20772426;28;20494;-78
2022/06/11 20:17:07;;;;;;;5.72;1.70;;;;;;;18.20;79.57;101887.00;20890892;28;20052;-78
2022/06/11 20:27:08;;;;;;;5.78;1.75;;;;;;;18.24;79.65;101893.88;20807684;28;20138;-78
2022/06/11 20:37:10;;;;;;;2.80;1.20;;;;;;;18.39;79.79;101914.31;20873284;28;20501;-78
2022/06/11 20:47:12;;;;;;;3.08;1.20;;;;;;;18.25;79.69;101899.16;20916665;28;20053;-78
2022/06/11 20:57:13;;;;;;;2.33;1.27;;;;;;;18.35;79.65;101911.97;20952386;28;20055;-78
2022/06/11 21:17:36;;;;;;;1.90;1.20;;;;;;;18.35;79.67;101920.06;20880103;28;20046;-78
2022/06/11 21:27:45;;;;;;;2.15;1.02;;;;;;;18.35;79.49;101918.19;20813163;28;20049;-78
2022/06/11 21:37:47;;;;;;;3.45;1.08;;;;;;;18.34;79.35;101908.41;20801849;28;20445;-78
2022/06/11 21:47:49;;;;;;;2.55;1.00;;;;;;;18.04;79.24;101871.97;20794490;28;20042;-78
2022/06/11 21:57:52;;;;;;;2.63;1.45;;;;;;;18.01;78.87;101872.19;20718832;28;20046;-78
2022/06/11 22:07:53;;;;;;;2.85;1.40;;;;;;;18.21;78.78;101894.13;20719906;28;20077;-78
2022/06/11 22:17:55;;;;;;;2.95;1.02;;;;;;;18.30;78.70;101924.91;20732209;28;20053;-78
2022/06/11 22:27:58;;;;;;;3.95;1.40;;;;;;;18.10;78.66;101886.81;20798968;28;20519;-78
2022/06/11 22:37:59;;;;;;;3.03;1.38;;;;;;;18.28;78.49;101911.56;20799408;28;20498;-78
2022/06/11 22:48:01;;;;;;;2.08;1.00;;;;;;;18.22;78.44;101914.72;20796982;28;20050;-78
2022/06/11 22:58:04;;;;;;;2.15;1.23;;;;;;;18.27;78.44;101917.91;20799087;28;20056;-78
2022/06/11 23:08:05;;;;;;;2.83;1.33;;;;;;;18.19;78.15;101904.16;20797051;28;20049;-78
2022/06/11 23:18:08;;;;;;;2.05;1.10;;;;;;;18.24;78.36;101916.28;20795262;28;20054;-78
2022/06/11 23:28:10;;;;;;;2.25;1.20;;;;;;;18.23;78.38;101914.56;20779921;28;20049;-78
2022/06/11 23:38:13;;;;;;;3.13;1.00;;;;;;;18.03;78.33;101880.16;20811200;28;20567;-78
2022/06/11 23:48:22;;;;;;;3.22;1.33;;;;;;;18.18;78.01;101903.28;20794332;28;20088;-78
2022/06/11 23:58:24;;;;;;;2.40;1.00;;;;;;;18.22;77.90;101914.72;20810042;28;20052;-77
